TimeEDT,TemperatureF,Dew PointF,Humidity,Sea Level PressureIn,VisibilityMPH,Wind Direction,Wind SpeedMPH,Gust SpeedMPH,PrecipitationIn,Events,Conditions,WindDirDegrees,DateUTC
12:56 AM,57.9,41.0,53,29.99,10.0,NNW,9.2,-,N/A,,Overcast,340,2013-09-23 04:56:00
1:56 AM,57.9,39.9,51,29.99,10.0,NNW,8.1,-,N/A,,Overcast,330,2013-09-23 05:56:00
2:56 AM,57.0,41.0,55,30.00,10.0,NNE,9.2,-,N/A,,Overcast,20,2013-09-23 06:56:00
3:56 AM,55.9,39.0,53,30.01,10.0,North,5.8,-,N/A,,Overcast,10,2013-09-23 07:56:00
4:56 AM,54.0,37.0,53,30.03,10.0,North,4.6,-,N/A,,Mostly Cloudy,350,2013-09-23 08:56:00
5:56 AM,54.0,37.9,55,30.04,10.0,North,3.5,-,N/A,,Overcast,350,2013-09-23 09:56:00
6:56 AM,53.1,37.9,57,30.06,10.0,NNW,4.6,-,N/A,,Mostly Cloudy,340,2013-09-23 10:56:00
7:56 AM,54.0,37.9,55,30.08,10.0,North,5.8,-,N/A,,Mostly Cloudy,360,2013-09-23 11:56:00
8:56 AM,55.0,37.9,53,30.10,10.0,North,6.9,-,N/A,,Mostly Cloudy,10,2013-09-23 12:56:00
9:56 AM,55.9,39.0,53,30.10,10.0,North,9.2,-,N/A,,Overcast,350,2013-09-23 13:56:00
10:56 AM,57.9,39.0,49,30.10,10.0,NNW,8.1,-,N/A,,Overcast,330,2013-09-23 14:56:00
11:56 AM,57.9,41.0,53,30.11,10.0,North,9.2,-,N/A,,Mostly Cloudy,350,2013-09-23 15:56:00
12:56 PM,60.1,41.0,49,30.10,10.0,NNW,11.5,-,N/A,,Mostly Cloudy,330,2013-09-23 16:56:00
1:56 PM,63.0,41.0,45,30.07,10.0,NNW,6.9,16.1,N/A,,Scattered Clouds,330,2013-09-23 17:56:00
2:56 PM,64.0,41.0,43,30.06,10.0,North,9.2,-,N/A,,Clear,350,2013-09-23 18:56:00
3:56 PM,64.9,42.1,43,30.04,10.0,North,9.2,-,N/A,,Clear,350,2013-09-23 19:56:00
4:56 PM,64.9,42.1,43,30.04,10.0,NNW,6.9,-,N/A,,Clear,330,2013-09-23 20:56:00
5:56 PM,64.9,42.1,43,30.04,10.0,North,6.9,-,N/A,,Clear,350,2013-09-23 21:56:00
6:56 PM,63.0,43.0,48,30.05,10.0,WNW,3.5,-,N/A,,Clear,290,2013-09-23 22:56:00
7:56 PM,55.9,46.0,69,30.06,10.0,Calm,Calm,-,N/A,,Clear,0,2013-09-23 23:56:00
8:56 PM,51.1,46.0,83,30.07,10.0,SW,3.5,-,N/A,,Clear,220,2013-09-24 00:56:00
9:56 PM,50.0,45.0,83,30.09,10.0,SW,3.5,-,N/A,,Clear,230,2013-09-24 01:56:00
10:56 PM,48.9,45.0,86,30.10,10.0,WSW,3.5,-,N/A,,Clear,250,2013-09-24 02:56:00
11:56 PM,48.0,44.1,86,30.10,10.0,WSW,3.5,-,N/A,,Clear,250,2013-09-24 03:56:00